createdAt,value
2022-09-23T00:01:25.732Z,10.03
2022-09-23T00:03:54.056Z,9.88
2022-09-23T00:06:23.754Z,9.69
2022-09-23T00:14:25.103Z,9.26
2022-09-23T00:16:54.552Z,9.11
2022-09-23T00:19:22.795Z,9.05
2022-09-23T00:21:50.799Z,9.01
2022-09-23T00:24:19.726Z,8.89
2022-09-23T00:26:47.740Z,8.92
2022-09-23T00:29:16.003Z,9.01
2022-09-23T00:31:44.126Z,8.95
2022-09-23T00:34:13.462Z,8.91
2022-09-23T00:36:41.376Z,8.91
2022-09-23T00:39:09.720Z,8.89
2022-09-23T00:41:37.999Z,8.94
2022-09-23T00:44:39.168Z,8.84
2022-09-23T00:47:13.976Z,8.67
2022-09-23T00:49:45.362Z,8.68
2022-09-23T00:52:17.505Z,8.70
2022-09-23T00:54:47.383Z,8.59
2022-09-23T00:57:17.147Z,8.56
2022-09-23T00:59:45.662Z,8.53
2022-09-23T01:02:15.658Z,8.33
2022-09-23T01:04:44.950Z,8.43
2022-09-23T01:07:13.893Z,8.43
2022-09-23T01:09:42.268Z,8.33
2022-09-23T01:12:25.371Z,8.33
2022-09-23T01:14:57.707Z,8.40
2022-09-23T01:17:32.778Z,8.39
2022-09-23T01:20:29.467Z,8.29
2022-09-23T01:23:12.148Z,8.32
2022-09-23T01:25:57.834Z,8.32
2022-09-23T01:28:37.740Z,8.24
2022-09-23T01:31:13.134Z,8.24
2022-09-23T01:33:51.746Z,8.21
2022-09-23T01:36:24.988Z,8.38
2022-09-23T01:38:59.620Z,8.31
2022-09-23T01:41:43.967Z,8.28
2022-09-23T01:44:19.412Z,8.08
2022-09-23T01:46:53.295Z,8.08
2022-09-23T01:49:26.832Z,8.09
2022-09-23T01:52:00.488Z,7.98
2022-09-23T01:54:33.364Z,7.86
2022-09-23T01:57:06.167Z,7.80
2022-09-23T01:59:37.840Z,7.95
2022-09-23T02:02:15.263Z,7.93
2022-09-23T02:04:49.221Z,7.90
2022-09-23T02:07:23.176Z,7.93
2022-09-23T02:09:56.170Z,7.86
2022-09-23T02:12:27.217Z,7.78
2022-09-23T02:14:59.626Z,7.70
2022-09-23T02:17:36.516Z,7.81
2022-09-23T02:20:06.752Z,7.83
2022-09-23T02:22:41.759Z,7.76
2022-09-23T02:25:12.519Z,7.86
2022-09-23T02:27:45.880Z,7.81
2022-09-23T02:30:16.629Z,7.80
2022-09-23T02:32:53.812Z,7.65
2022-09-23T02:35:29.271Z,7.76
2022-09-23T02:38:10.967Z,7.80
2022-09-23T02:40:47.597Z,7.88
2022-09-23T02:43:21.235Z,7.88
2022-09-23T02:45:49.940Z,7.87
2022-09-23T02:48:22.544Z,7.83
2022-09-23T02:50:50.869Z,7.69
2022-09-23T02:53:18.818Z,7.74
2022-09-23T02:55:46.792Z,7.84
2022-09-23T02:58:15.116Z,7.74
2022-09-23T03:00:55.674Z,7.86
2022-09-23T03:03:33.538Z,7.78
2022-09-23T03:06:10.079Z,7.81
2022-09-23T03:08:48.353Z,7.58
2022-09-23T03:11:17.590Z,7.69
2022-09-23T03:13:58.566Z,7.78
2022-09-23T03:16:32.857Z,7.81
2022-09-23T03:19:17.490Z,7.83
2022-09-23T03:21:52.775Z,7.71
2022-09-23T03:24:23.332Z,7.76
2022-09-23T03:26:53.915Z,7.67
2022-09-23T03:29:23.931Z,7.77
2022-09-23T03:31:52.041Z,7.78
2022-09-23T03:34:26.667Z,7.84
2022-09-23T03:37:00.680Z,7.84
2022-09-23T03:39:36.963Z,7.74
2022-09-23T03:42:16.988Z,7.71
2022-09-23T03:44:47.043Z,7.63
2022-09-23T03:47:17.286Z,7.70
2022-09-23T03:49:50.977Z,7.67
2022-09-23T03:52:20.835Z,7.42
2022-09-23T03:54:48.882Z,7.48
2022-09-23T03:57:16.848Z,7.38
2022-09-23T03:59:45.188Z,7.52
2022-09-23T04:02:13.175Z,7.65
2022-09-23T04:04:41.399Z,7.60
2022-09-23T04:07:11.115Z,7.66
2022-09-23T04:09:39.582Z,7.70
2022-09-23T04:12:08.622Z,7.77
2022-09-23T04:14:36.511Z,7.73
2022-09-23T04:17:04.658Z,7.73
2022-09-23T04:19:32.585Z,7.51
2022-09-23T04:22:00.735Z,7.51
2022-09-23T04:24:30.029Z,7.56
2022-09-23T04:26:58.571Z,7.60
2022-09-23T04:29:27.160Z,7.55
2022-09-23T04:31:55.783Z,7.51
2022-09-23T04:34:24.101Z,7.63
2022-09-23T04:36:52.038Z,7.55
2022-09-23T04:39:20.066Z,7.42
2022-09-23T04:41:49.388Z,7.48
2022-09-23T04:44:17.592Z,7.42
2022-09-23T04:46:47.303Z,7.36
2022-09-23T04:49:15.615Z,7.48
2022-09-23T04:51:45.059Z,7.34
2022-09-23T04:54:15.020Z,7.31
2022-09-23T04:56:43.628Z,7.28
2022-09-23T04:59:14.516Z,7.25
2022-09-23T05:01:43.093Z,7.29
2022-09-23T05:04:13.373Z,7.25
2022-09-23T05:06:44.098Z,7.12
2022-09-23T05:09:16.773Z,7.28
2022-09-23T05:11:45.217Z,7.22
2022-09-23T05:14:14.719Z,7.25
2022-09-23T05:16:42.943Z,7.17
2022-09-23T05:19:11.767Z,7.09
2022-09-23T05:21:40.214Z,7.14
2022-09-23T05:24:08.787Z,7.15
2022-09-23T05:26:37.573Z,7.12
2022-09-23T05:29:05.902Z,7.26
2022-09-23T05:31:36.742Z,7.22
2022-09-23T05:34:06.201Z,7.29
2022-09-23T05:36:38.740Z,7.14
2022-09-23T05:39:08.240Z,7.21
2022-09-23T05:41:36.793Z,7.11
2022-09-23T05:44:05.302Z,7.22
2022-09-23T05:46:33.627Z,7.28
2022-09-23T05:49:04.340Z,7.17
2022-09-23T05:51:34.371Z,7.08
2022-09-23T05:54:04.111Z,7.12
2022-09-23T05:56:33.491Z,7.11
2022-09-23T05:59:02.644Z,7.26
2022-09-23T06:01:34.176Z,7.21
2022-09-23T06:04:06.197Z,7.28
2022-09-23T06:06:37.203Z,7.29
2022-09-23T06:09:06.183Z,7.39
2022-09-23T06:11:35.366Z,7.28
2022-09-23T06:14:03.943Z,7.31
2022-09-23T06:16:34.173Z,7.41
2022-09-23T06:19:06.499Z,7.53
2022-09-23T06:21:36.219Z,7.63
2022-09-23T06:24:04.621Z,7.76
2022-09-23T06:26:35.225Z,7.87
2022-09-23T06:29:04.598Z,7.84
2022-09-23T06:31:33.062Z,7.80
2022-09-23T06:34:12.203Z,7.91
2022-09-23T06:36:44.847Z,8.04
2022-09-23T06:39:14.591Z,8.14
2022-09-23T06:41:42.681Z,8.29
2022-09-23T06:44:13.917Z,8.52
2022-09-23T06:46:41.981Z,8.56
2022-09-23T06:49:10.636Z,8.64
2022-09-23T06:51:39.212Z,8.70
2022-09-23T06:54:08.909Z,8.87
2022-09-23T06:56:39.405Z,8.91
2022-09-23T06:59:08.981Z,9.08
2022-09-23T07:01:36.923Z,9.26
2022-09-23T07:04:07.304Z,9.28
2022-09-23T07:06:35.570Z,9.25
2022-09-23T07:09:03.490Z,9.25
2022-09-23T07:11:32.871Z,9.39
2022-09-23T07:14:00.724Z,9.47
2022-09-23T07:16:28.725Z,9.44
2022-09-23T07:18:56.706Z,9.55
2022-09-23T07:21:24.720Z,9.61
2022-09-23T07:23:52.821Z,9.64
2022-09-23T07:26:21.467Z,9.71
2022-09-23T07:28:55.040Z,9.70
2022-09-23T07:31:36.447Z,9.91
2022-09-23T07:34:06.715Z,10.06
2022-09-23T07:36:37.219Z,10.12
2022-09-23T07:39:05.754Z,10.22
2022-09-23T07:41:34.993Z,10.41
2022-09-23T07:44:06.050Z,10.51
2022-09-23T07:46:36.460Z,10.58
2022-09-23T07:49:05.615Z,10.74
2022-09-23T07:51:36.602Z,10.89
2022-09-23T07:54:07.916Z,10.91
2022-09-23T07:56:38.371Z,10.99
2022-09-23T07:59:09.356Z,11.15
2022-09-23T08:01:39.328Z,11.34
2022-09-23T08:04:08.792Z,11.48
2022-09-23T08:06:36.956Z,11.64
2022-09-23T08:09:05.096Z,11.85
2022-09-23T08:11:33.092Z,11.92
2022-09-23T08:14:01.038Z,12.16
2022-09-23T08:16:30.367Z,12.24
2022-09-23T08:18:58.484Z,12.34
2022-09-23T08:21:26.446Z,12.55
2022-09-23T08:23:54.399Z,12.72
2022-09-23T08:26:22.680Z,12.81
2022-09-23T08:28:54.518Z,13.00
2022-09-23T08:31:23.510Z,13.33
2022-09-23T08:33:56.888Z,13.55
2022-09-23T08:36:26.965Z,13.76
2022-09-23T08:43:01.122Z,14.33
2022-09-23T08:45:29.596Z,14.37
2022-09-23T08:48:02.093Z,14.41
2022-09-23T08:50:37.685Z,14.41
2022-09-23T08:53:10.297Z,14.35
2022-09-23T08:55:43.073Z,14.42
2022-09-23T08:58:29.351Z,14.42
2022-09-23T09:01:07.546Z,14.57
2022-09-23T09:03:37.802Z,14.67
2022-09-23T09:06:09.998Z,14.97
2022-09-23T09:08:39.456Z,15.08
2022-09-23T09:11:08.206Z,15.34
2022-09-23T09:13:43.811Z,15.51
2022-09-23T09:16:59.107Z,15.59
2022-09-23T09:19:53.012Z,15.59
2022-09-23T09:22:29.922Z,15.72
2022-09-23T09:25:04.168Z,15.85
2022-09-23T09:27:32.140Z,16.10
2022-09-23T09:30:01.700Z,16.32
2022-09-23T09:32:43.929Z,16.47
2022-09-23T09:35:24.148Z,16.48
2022-09-23T09:37:53.701Z,16.47
2022-09-23T09:40:21.642Z,16.68
2022-09-23T09:42:51.192Z,16.79
2022-09-23T09:45:30.073Z,16.81
2022-09-23T09:48:07.501Z,16.76
2022-09-23T09:50:47.263Z,16.59
2022-09-23T09:53:25.585Z,16.83
2022-09-23T09:56:04.867Z,17.25
2022-09-23T09:58:41.690Z,17.41
2022-09-23T10:01:09.860Z,17.27
2022-09-23T10:03:44.143Z,17.68
2022-09-23T10:06:18.845Z,17.77
2022-09-23T10:09:05.373Z,18.18
2022-09-23T10:11:33.947Z,17.77
2022-09-23T10:14:06.012Z,17.77
2022-09-23T10:16:35.720Z,17.89
2022-09-23T10:19:05.243Z,18.31
2022-09-23T10:21:37.076Z,18.37
2022-09-23T10:24:08.730Z,18.45
2022-09-23T10:26:43.970Z,18.44
2022-09-23T10:29:24.054Z,18.46
2022-09-23T10:32:25.683Z,18.39
2022-09-23T10:34:57.018Z,18.55
2022-09-23T10:37:38.052Z,18.37
2022-09-23T10:40:45.937Z,18.52
2022-09-23T10:43:53.552Z,18.66
2022-09-23T10:46:41.522Z,18.39
2022-09-23T10:49:49.908Z,18.39
2022-09-23T10:52:36.292Z,18.56
2022-09-23T10:55:13.692Z,18.81
2022-09-23T10:57:57.698Z,18.72
2022-09-23T11:00:34.644Z,18.42
2022-09-23T11:03:27.294Z,18.83
2022-09-23T11:06:06.395Z,19.32
2022-09-23T11:08:53.443Z,19.48
2022-09-23T11:11:34.124Z,19.32
2022-09-23T11:14:22.830Z,19.59
2022-09-23T11:17:06.611Z,19.25
2022-09-23T11:19:49.641Z,18.97
2022-09-23T11:22:36.094Z,19.19
2022-09-23T11:25:28.381Z,19.35
2022-09-23T11:28:18.784Z,19.03
2022-09-23T11:30:56.000Z,19.08
2022-09-23T11:33:34.032Z,19.24
2022-09-23T11:36:06.757Z,19.12
2022-09-23T11:38:41.215Z,19.14
2022-09-23T11:41:18.659Z,19.46
2022-09-23T11:43:52.325Z,19.22
2022-09-23T11:46:31.809Z,18.96
2022-09-23T11:49:07.510Z,19.06
2022-09-23T11:51:41.483Z,19.18
2022-09-23T11:54:20.904Z,19.18
2022-09-23T11:56:53.008Z,18.98
2022-09-23T11:59:40.276Z,19.39
2022-09-23T12:02:22.191Z,19.38
2022-09-23T12:05:01.210Z,19.17
2022-09-23T12:07:39.560Z,18.91
2022-09-23T12:10:09.930Z,18.79
2022-09-23T12:12:47.684Z,18.60
2022-09-23T12:15:27.618Z,18.59
2022-09-23T12:18:22.334Z,18.79
2022-09-23T12:21:05.327Z,18.93
2022-09-23T12:23:45.993Z,18.74
2022-09-23T12:26:18.255Z,18.91
2022-09-23T12:28:49.139Z,19.06
2022-09-23T12:31:20.103Z,19.36
2022-09-23T12:33:54.642Z,19.60
2022-09-23T12:36:27.831Z,19.41
2022-09-23T12:39:01.597Z,19.48
2022-09-23T12:41:36.590Z,20.03
2022-09-23T12:44:31.566Z,20.43
2022-09-23T12:47:40.116Z,21.19
2022-09-23T12:50:45.181Z,21.05
2022-09-23T12:53:53.726Z,21.36
2022-09-23T12:56:26.440Z,21.81
2022-09-23T12:59:25.218Z,21.64
2022-09-23T13:01:54.014Z,21.93
2022-09-23T13:04:49.722Z,21.63
2022-09-23T13:07:20.249Z,21.94
2022-09-23T13:09:51.465Z,22.78
2022-09-23T13:12:25.231Z,22.33
2022-09-23T13:14:58.125Z,22.53
2022-09-23T13:17:31.124Z,22.35
2022-09-23T13:20:01.879Z,22.01
2022-09-23T13:23:16.668Z,21.38
2022-09-23T13:25:45.333Z,21.46
2022-09-23T13:28:27.238Z,20.83
2022-09-23T13:30:55.327Z,20.53
2022-09-23T13:33:38.913Z,21.15
2022-09-23T13:36:13.539Z,21.47
2022-09-23T13:38:42.153Z,21.32
2022-09-23T13:41:14.766Z,21.97
2022-09-23T13:43:46.208Z,22.14
2022-09-23T13:46:18.198Z,22.45
2022-09-23T13:48:48.369Z,21.87
2022-09-23T13:51:23.023Z,21.32
2022-09-23T13:53:55.942Z,21.31
2022-09-23T13:56:25.228Z,21.18
2022-09-23T13:58:55.849Z,21.01
2022-09-23T14:01:30.714Z,20.70
2022-09-23T14:03:59.099Z,20.63
2022-09-23T14:06:27.919Z,20.25
2022-09-23T14:08:56.515Z,20.15
2022-09-23T14:11:30.527Z,19.71
2022-09-23T14:14:07.231Z,19.25
2022-09-23T14:16:40.537Z,19.19
2022-09-23T14:19:14.183Z,18.81
2022-09-23T14:21:42.674Z,18.86
2022-09-23T14:24:16.411Z,19.01
2022-09-23T14:26:47.606Z,18.57
2022-09-23T14:29:19.945Z,18.60
2022-09-23T14:31:57.051Z,18.56
2022-09-23T14:34:42.570Z,18.56
2022-09-23T14:37:38.480Z,18.53
2022-09-23T14:40:10.825Z,18.60
2022-09-23T14:42:41.175Z,18.34
2022-09-23T14:45:19.161Z,18.34
2022-09-23T14:47:49.724Z,18.34
2022-09-23T14:50:40.574Z,18.37
2022-09-23T14:53:37.374Z,18.67
2022-09-23T14:56:20.332Z,18.65
2022-09-23T14:58:53.078Z,18.52
2022-09-23T15:01:36.200Z,18.56
2022-09-23T15:04:16.932Z,18.60
2022-09-23T15:06:50.006Z,18.57
2022-09-23T15:09:23.726Z,18.62
2022-09-23T15:11:53.948Z,18.80
2022-09-23T15:14:37.389Z,18.59
2022-09-23T15:17:16.685Z,18.72
2022-09-23T15:19:44.998Z,18.74
2022-09-23T15:22:13.328Z,18.94
2022-09-23T15:24:45.949Z,19.11
2022-09-23T15:27:30.821Z,19.34
2022-09-23T15:30:17.165Z,18.86
2022-09-23T15:32:47.390Z,18.72
2022-09-23T15:35:16.460Z,18.66
2022-09-23T15:37:44.710Z,18.65
2022-09-23T15:40:22.029Z,18.42
2022-09-23T15:42:52.280Z,18.46
2022-09-23T15:45:22.371Z,17.96
2022-09-23T15:47:52.286Z,17.76
2022-09-23T15:50:20.837Z,17.58
2022-09-23T15:52:48.761Z,17.56
2022-09-23T15:55:18.413Z,17.48
2022-09-23T15:57:46.308Z,17.38
2022-09-23T16:00:15.807Z,17.34
2022-09-23T16:02:45.433Z,17.34
2022-09-23T16:05:22.358Z,17.25
2022-09-23T16:07:52.367Z,17.18
2022-09-23T16:10:24.927Z,17.07
2022-09-23T16:12:55.295Z,17.03
2022-09-23T16:15:24.621Z,16.97
2022-09-23T16:17:52.706Z,16.96
2022-09-23T16:20:22.776Z,16.86
2022-09-23T16:22:55.284Z,16.90
2022-09-23T16:25:28.216Z,16.80
2022-09-23T16:27:57.283Z,16.77
2022-09-23T16:30:26.356Z,16.75
2022-09-23T16:32:54.255Z,16.72
2022-09-23T16:35:25.679Z,16.54
2022-09-23T16:37:53.745Z,16.54
2022-09-23T16:40:24.012Z,16.51
2022-09-23T16:42:55.032Z,16.42
2022-09-23T16:45:23.426Z,16.35
2022-09-23T16:47:52.449Z,16.25
2022-09-23T16:50:23.741Z,16.10
2022-09-23T16:52:54.827Z,16.00
2022-09-23T16:55:24.735Z,15.92
2022-09-23T16:57:52.579Z,15.89
2022-09-23T17:00:37.637Z,15.86
2022-09-23T17:03:23.872Z,15.85
2022-09-23T17:05:55.527Z,15.73
2022-09-23T17:08:23.467Z,15.69
2022-09-23T17:10:58.524Z,15.66
2022-09-23T17:13:27.483Z,15.63
2022-09-23T17:15:55.757Z,15.57
2022-09-23T17:18:24.129Z,15.54
2022-09-23T17:21:01.554Z,15.42
2022-09-23T17:23:31.717Z,15.31
2022-09-23T17:26:00.333Z,15.24
2022-09-23T17:28:28.480Z,15.27
2022-09-23T17:30:59.026Z,15.30
2022-09-23T17:33:27.214Z,15.23
2022-09-23T17:35:56.759Z,15.21
2022-09-23T17:38:29.179Z,15.16
2022-09-23T17:41:01.255Z,15.16
2022-09-23T17:43:31.490Z,15.03
2022-09-23T17:46:05.270Z,14.97
2022-09-23T17:48:34.886Z,14.89
2022-09-23T17:51:04.462Z,14.92
2022-09-23T17:53:36.150Z,14.80
2022-09-23T17:56:06.269Z,14.79
2022-09-23T17:58:36.312Z,14.67
2022-09-23T18:01:05.039Z,14.61
2022-09-23T18:03:33.268Z,14.57
2022-09-23T18:06:12.946Z,14.54
2022-09-23T18:08:43.071Z,14.54
2022-09-23T18:11:19.932Z,14.46
2022-09-23T18:13:52.509Z,14.41
2022-09-23T18:16:21.809Z,14.42
2022-09-23T18:18:53.452Z,14.38
2022-09-23T18:21:21.999Z,14.40
2022-09-23T18:23:51.433Z,14.35
2022-09-23T18:26:21.407Z,14.31
2022-09-23T18:28:50.027Z,14.37
2022-09-23T18:31:18.067Z,14.33
2022-09-23T18:33:51.028Z,14.34
2022-09-23T18:36:19.499Z,14.27
2022-09-23T18:38:47.569Z,14.27
2022-09-23T18:41:17.954Z,14.30
2022-09-23T18:43:48.564Z,14.24
2022-09-23T18:46:18.384Z,14.14
2022-09-23T18:49:04.707Z,14.10
2022-09-23T18:51:34.629Z,14.10
2022-09-23T18:54:03.323Z,14.12
2022-09-23T18:56:37.267Z,14.10
2022-09-23T18:59:06.381Z,14.09
2022-09-23T19:01:35.110Z,14.12
2022-09-23T19:04:03.883Z,14.08
2022-09-23T19:06:34.670Z,14.09
2022-09-23T19:09:03.040Z,14.05
2022-09-23T19:11:32.703Z,14.02
2022-09-23T19:14:01.933Z,14.08
2022-09-23T19:16:32.212Z,14.05
2022-09-23T19:19:00.714Z,13.95
2022-09-23T19:21:29.672Z,13.86
2022-09-23T19:24:00.373Z,13.86
2022-09-23T19:26:32.109Z,13.81
2022-09-23T19:29:02.522Z,13.83
2022-09-23T19:31:33.381Z,13.82
2022-09-23T19:34:04.550Z,13.86
2022-09-23T19:36:36.847Z,13.87
2022-09-23T19:39:06.744Z,13.98
2022-09-23T19:41:35.480Z,13.99
2022-09-23T19:44:08.063Z,14.03
2022-09-23T19:46:37.773Z,14.02
2022-09-23T19:49:07.244Z,14.00
2022-09-23T19:51:36.685Z,14.05
2022-09-23T19:54:07.138Z,14.02
2022-09-23T19:56:35.764Z,14.05
2022-09-23T19:59:08.708Z,14.12
2022-09-23T20:01:37.251Z,14.14
2022-09-23T20:04:05.658Z,14.21
2022-09-23T20:06:35.910Z,14.24
2022-09-23T20:09:03.834Z,14.35
2022-09-23T20:11:32.488Z,14.30
2022-09-23T20:14:04.474Z,14.27
2022-09-23T20:16:35.562Z,14.26
2022-09-23T20:19:04.402Z,14.14
2022-09-23T20:21:33.487Z,14.12
2022-09-23T20:24:02.115Z,13.99
2022-09-23T20:26:47.968Z,14.02
2022-09-23T20:29:16.142Z,13.98
2022-09-23T20:31:45.456Z,13.81
2022-09-23T20:34:13.724Z,13.79
2022-09-23T20:36:42.520Z,13.68
2022-09-23T20:39:10.970Z,13.57
2022-09-23T20:41:39.629Z,13.68
2022-09-23T20:44:12.559Z,13.59
2022-09-23T20:46:44.139Z,13.65
2022-09-23T20:49:17.857Z,13.75
2022-09-23T20:51:46.274Z,13.85
2022-09-23T20:54:14.149Z,13.90
2022-09-23T20:56:42.052Z,13.96
2022-09-23T20:59:10.576Z,14.02
2022-09-23T21:01:38.590Z,13.98
2022-09-23T21:04:07.908Z,13.89
2022-09-23T21:06:38.175Z,13.92
2022-09-23T21:09:07.459Z,13.89
2022-09-23T21:11:35.316Z,13.90
2022-09-23T21:14:03.658Z,13.96
2022-09-23T21:16:32.003Z,13.99
2022-09-23T21:19:00.338Z,13.92
2022-09-23T21:21:28.553Z,13.82
2022-09-23T21:24:17.310Z,13.82
2022-09-23T21:26:47.844Z,13.72
2022-09-23T21:29:15.808Z,13.65
2022-09-23T21:31:43.836Z,13.69
2022-09-23T21:34:12.693Z,13.68
2022-09-23T21:36:42.813Z,13.72
2022-09-23T21:39:13.069Z,13.76
2022-09-23T21:41:41.175Z,13.79
2022-09-23T21:44:09.465Z,13.71
2022-09-23T21:46:38.198Z,13.68
2022-09-23T21:49:06.471Z,13.69
2022-09-23T21:51:37.752Z,13.75
2022-09-23T21:54:07.254Z,13.76
2022-09-23T21:56:38.007Z,13.76
2022-09-23T21:59:07.707Z,13.74
2022-09-23T22:01:37.405Z,13.71
2022-09-23T22:04:08.183Z,13.71
2022-09-23T22:06:38.165Z,13.79
2022-09-23T22:09:08.907Z,13.86
2022-09-23T22:11:56.880Z,13.89
2022-09-23T22:14:26.407Z,13.87
2022-09-23T22:16:57.551Z,13.90
2022-09-23T22:19:27.480Z,13.96
2022-09-23T22:21:55.903Z,13.90
2022-09-23T22:24:24.236Z,13.87
2022-09-23T22:26:53.846Z,13.85
2022-09-23T22:29:39.051Z,13.81
2022-09-23T22:32:28.763Z,13.71
2022-09-23T22:34:56.774Z,13.65
2022-09-23T22:37:27.942Z,13.59
2022-09-23T22:39:56.141Z,13.55
2022-09-23T22:42:26.232Z,13.54
2022-09-23T22:44:55.541Z,13.44
2022-09-23T22:47:24.206Z,13.44
2022-09-23T22:49:54.515Z,13.41
2022-09-23T22:52:24.475Z,13.41
2022-09-23T22:54:52.997Z,13.53
2022-09-23T22:57:21.055Z,13.34
2022-09-23T22:59:50.370Z,13.31
2022-09-23T23:02:19.721Z,13.37
2022-09-23T23:04:48.156Z,13.27
2022-09-23T23:07:21.050Z,13.34
2022-09-23T23:09:50.549Z,13.36
2022-09-23T23:12:20.137Z,13.26
2022-09-23T23:14:48.465Z,13.13
2022-09-23T23:17:18.794Z,13.13
2022-09-23T23:19:46.922Z,13.23
2022-09-23T23:22:14.825Z,13.24
2022-09-23T23:24:43.058Z,13.19
2022-09-23T23:27:11.108Z,13.19
2022-09-23T23:29:39.046Z,13.17
2022-09-23T23:32:07.889Z,13.19
2022-09-23T23:34:37.241Z,13.14
2022-09-23T23:37:05.188Z,13.16
2022-09-23T23:39:34.605Z,13.12
2022-09-23T23:42:03.602Z,13.12
2022-09-23T23:44:34.403Z,13.27
2022-09-23T23:47:02.882Z,13.37
2022-09-23T23:49:30.956Z,13.47
2022-09-23T23:52:00.284Z,13.50
2022-09-23T23:54:28.227Z,13.43
2022-09-23T23:56:56.196Z,13.44
2022-09-23T23:59:24.126Z,13.40
